Weather at Sun Company-Radnor Heliport

Public forecast

Using degrees Fahrenheit for public forecast. Weather courtesy of forecast.io.

Closest aviation weather report (METAR) to Sun Company-Radnor Heliport

Closest report is Wings Field, 6.9 nm (12.8 km) NE. Retrieved 2022/01/22 21:35 UTC (6 minutes ago):

KLOM 222135Z AUTO 23003KT 10SM CLR M03/M18 A3021 RMK AO2 T10261181

Closest aviation forecast (TAF) to Sun Company-Radnor Heliport

Closest forecast is Philadelphia International Airport, 11.8 nm (21.9 km) SSE. Retrieved 2022/01/22 18:37 UTC (3 hours ago):

TAF KPHL 221733Z 2218/2324 VRB03KT P6SM SCT200 FM230600 25005KT P6SM SCT200 FM231400 26009KT P6SM SCT120 BKN200 FM231800 26009KT P6SM SCT035 OVC070 FM232200 27004KT P6SM -SN SCT025 OVC050